TNU5532 WAOO-WARR
Flight info
| Callsign | TNU5532 |
|---|---|
| Flight time | 0h 51m |
| Altitude | 34000 |
| Route | RITBO |
| Aircraft | A320/M-SDE3FGHIRWY/LB1 |
Departure
| Time | 2026-05-08 11:41 |
|---|---|
| Airport | Syamsudin Noor International Airport (WAOO) |
Arrival
| Time | 2026-05-08 12:32 |
|---|---|
| Airport | Juanda International Airport (WARR) |
| Time | Latitude | Longitude | Altitude | Speed | Heading |
|---|---|---|---|---|---|
| 2026-05-08 11:25 | -3.43840 | 114.76016 | 75 ft | 0 kts | 10° |
| 2026-05-08 11:31 | -3.43851 | 114.76014 | 65 ft | 4 kts | 9° |
| 2026-05-08 11:31 | -3.43887 | 114.76008 | 71 ft | 4 kts | 7° |
| 2026-05-08 11:32 | -3.43904 | 114.76007 | 68 ft | 3 kts | 357° |
| 2026-05-08 11:32 | -3.43919 | 114.76009 | 67 ft | 2 kts | 317° |
| 2026-05-08 11:32 | -3.43927 | 114.76018 | 67 ft | 2 kts | 289° |
| 2026-05-08 11:32 | -3.43930 | 114.76029 | 65 ft | 2 kts | 282° |
| 2026-05-08 11:33 | -3.43932 | 114.76039 | 65 ft | 2 kts | 280° |
| 2026-05-08 11:33 | -3.43933 | 114.76041 | 64 ft | 0 kts | 280° |
| 2026-05-08 11:35 | -3.43929 | 114.76022 | 67 ft | 5 kts | 281° |
| 2026-05-08 11:35 | -3.43920 | 114.75975 | 69 ft | 8 kts | 280° |
| 2026-05-08 11:35 | -3.43909 | 114.75910 | 75 ft | 10 kts | 281° |
| 2026-05-08 11:35 | -3.43896 | 114.75841 | 75 ft | 9 kts | 280° |
| 2026-05-08 11:36 | -3.43885 | 114.75783 | 75 ft | 8 kts | 280° |
| 2026-05-08 11:36 | -3.43875 | 114.75727 | 65 ft | 7 kts | 272° |
| 2026-05-08 11:36 | -3.43904 | 114.75699 | 73 ft | 6 kts | 197° |
| 2026-05-08 11:36 | -3.43942 | 114.75693 | 70 ft | 5 kts | 189° |
| 2026-05-08 11:37 | -3.43986 | 114.75685 | 72 ft | 8 kts | 190° |
| 2026-05-08 11:37 | -3.44053 | 114.75672 | 72 ft | 11 kts | 190° |
| 2026-05-08 11:37 | -3.44112 | 114.75643 | 72 ft | 9 kts | 242° |
| 2026-05-08 11:37 | -3.44107 | 114.75583 | 74 ft | 10 kts | 281° |
| 2026-05-08 11:38 | -3.44090 | 114.75495 | 67 ft | 16 kts | 280° |
| 2026-05-08 11:38 | -3.44069 | 114.75375 | 72 ft | 19 kts | 280° |
| 2026-05-08 11:38 | -3.44046 | 114.75263 | 65 ft | 12 kts | 289° |
| 2026-05-08 11:38 | -3.44009 | 114.75206 | 70 ft | 8 kts | 304° |
| 2026-05-08 11:39 | -3.44023 | 114.75174 | 72 ft | 6 kts | 182° |
| 2026-05-08 11:39 | -3.44038 | 114.75206 | 73 ft | 3 kts | 101° |
| 2026-05-08 11:39 | -3.44040 | 114.75215 | 73 ft | 0 kts | 101° |
| 2026-05-08 11:40 | -3.44042 | 114.75227 | 71 ft | 10 kts | 101° |
| 2026-05-08 11:40 | -3.44094 | 114.75506 | 74 ft | 78 kts | 100° |
| 2026-05-08 11:40 | -3.44234 | 114.76266 | 77 ft | 139 kts | 100° |
| 2026-05-08 11:40 | -3.44438 | 114.77302 | 429 ft | 154 kts | 101° |
| 2026-05-08 11:41 | -3.44646 | 114.78360 | 1018 ft | 158 kts | 101° |
| 2026-05-08 11:41 | -3.44867 | 114.79460 | 1554 ft | 168 kts | 105° |
| 2026-05-08 11:41 | -3.45330 | 114.80609 | 1895 ft | 190 kts | 120° |
| 2026-05-08 11:41 | -3.46172 | 114.81719 | 2212 ft | 212 kts | 136° |
| 2026-05-08 11:42 | -3.47430 | 114.82637 | 2562 ft | 237 kts | 154° |
| 2026-05-08 11:42 | -3.49070 | 114.83131 | 3079 ft | 257 kts | 177° |
| 2026-05-08 11:42 | -3.50840 | 114.82841 | 3888 ft | 263 kts | 205° |
| 2026-05-08 11:42 | -3.52365 | 114.81818 | 4787 ft | 266 kts | 218° |
| 2026-05-08 11:43 | -3.53825 | 114.80661 | 5700 ft | 269 kts | 219° |
| 2026-05-08 11:43 | -3.55290 | 114.79483 | 6571 ft | 273 kts | 219° |
| 2026-05-08 11:43 | -3.56776 | 114.78282 | 7435 ft | 276 kts | 219° |
| 2026-05-08 11:43 | -3.58280 | 114.77068 | 8276 ft | 280 kts | 219° |
| 2026-05-08 11:44 | -3.59827 | 114.75822 | 9097 ft | 283 kts | 219° |
| 2026-05-08 11:44 | -3.61373 | 114.74580 | 9911 ft | 287 kts | 219° |
| 2026-05-08 11:44 | -3.62925 | 114.73338 | 10561 ft | 297 kts | 219° |
| 2026-05-08 11:44 | -3.64623 | 114.71979 | 10813 ft | 320 kts | 219° |
| 2026-05-08 11:45 | -3.66404 | 114.70555 | 11303 ft | 332 kts | 219° |
| 2026-05-08 11:45 | -3.68223 | 114.69097 | 11998 ft | 337 kts | 219° |
| 2026-05-08 11:45 | -3.70063 | 114.67622 | 12712 ft | 341 kts | 219° |
| 2026-05-08 11:45 | -3.71926 | 114.66129 | 13411 ft | 345 kts | 219° |
| 2026-05-08 11:46 | -3.73810 | 114.64618 | 14099 ft | 348 kts | 219° |
| 2026-05-08 11:46 | -3.75710 | 114.63093 | 14753 ft | 352 kts | 219° |
| 2026-05-08 11:46 | -3.77623 | 114.61557 | 15406 ft | 355 kts | 219° |
| 2026-05-08 11:46 | -3.79561 | 114.60003 | 16035 ft | 359 kts | 219° |
| 2026-05-08 11:47 | -3.81522 | 114.58432 | 16646 ft | 362 kts | 219° |
| 2026-05-08 11:47 | -3.83496 | 114.56854 | 17241 ft | 365 kts | 219° |
| 2026-05-08 11:47 | -3.85491 | 114.55259 | 17822 ft | 369 kts | 219° |
| 2026-05-08 11:47 | -3.87502 | 114.53647 | 18394 ft | 372 kts | 219° |
| 2026-05-08 11:48 | -3.89533 | 114.52020 | 18952 ft | 375 kts | 219° |
| 2026-05-08 11:48 | -3.91576 | 114.50384 | 19521 ft | 378 kts | 219° |
| 2026-05-08 11:48 | -3.93640 | 114.48730 | 20054 ft | 381 kts | 219° |
| 2026-05-08 11:48 | -3.95690 | 114.47085 | 20588 ft | 384 kts | 219° |
| 2026-05-08 11:49 | -3.97780 | 114.45406 | 21107 ft | 387 kts | 219° |
| 2026-05-08 11:49 | -3.99895 | 114.43714 | 21622 ft | 391 kts | 219° |
| 2026-05-08 11:49 | -4.02027 | 114.42007 | 22132 ft | 394 kts | 219° |
| 2026-05-08 11:49 | -4.04172 | 114.40287 | 22624 ft | 397 kts | 219° |
| 2026-05-08 11:50 | -4.06334 | 114.38556 | 23102 ft | 400 kts | 219° |
| 2026-05-08 11:50 | -4.08512 | 114.36812 | 23564 ft | 402 kts | 219° |
| 2026-05-08 11:50 | -4.10710 | 114.35051 | 24012 ft | 405 kts | 219° |
| 2026-05-08 11:50 | -4.12912 | 114.33282 | 24444 ft | 408 kts | 219° |
| 2026-05-08 11:51 | -4.15134 | 114.31496 | 24864 ft | 411 kts | 219° |
| 2026-05-08 11:51 | -4.17371 | 114.29698 | 25258 ft | 413 kts | 219° |
| 2026-05-08 11:51 | -4.19616 | 114.27894 | 25650 ft | 416 kts | 219° |
| 2026-05-08 11:51 | -4.21881 | 114.26077 | 26026 ft | 418 kts | 219° |
| 2026-05-08 11:52 | -4.24156 | 114.24253 | 26391 ft | 420 kts | 219° |
| 2026-05-08 11:52 | -4.26447 | 114.22414 | 26748 ft | 423 kts | 219° |
| 2026-05-08 11:52 | -4.28744 | 114.20566 | 27093 ft | 425 kts | 219° |
| 2026-05-08 11:52 | -4.31056 | 114.18710 | 27437 ft | 427 kts | 219° |
| 2026-05-08 11:53 | -4.33388 | 114.16842 | 27772 ft | 430 kts | 219° |
| 2026-05-08 11:53 | -4.35729 | 114.14968 | 28098 ft | 432 kts | 219° |
| 2026-05-08 11:53 | -4.38077 | 114.13089 | 28413 ft | 434 kts | 219° |
| 2026-05-08 11:53 | -4.40439 | 114.11191 | 28722 ft | 436 kts | 219° |
| 2026-05-08 11:54 | -4.42808 | 114.09284 | 29019 ft | 438 kts | 219° |
| 2026-05-08 11:54 | -4.45155 | 114.07390 | 29304 ft | 440 kts | 219° |
| 2026-05-08 11:54 | -4.47578 | 114.05438 | 29589 ft | 442 kts | 219° |
| 2026-05-08 11:54 | -4.49950 | 114.03533 | 29858 ft | 444 kts | 219° |
| 2026-05-08 11:55 | -4.52398 | 114.01570 | 30125 ft | 446 kts | 219° |
| 2026-05-08 11:55 | -4.54824 | 113.99627 | 30379 ft | 447 kts | 219° |
| 2026-05-08 11:55 | -4.57227 | 113.97702 | 30621 ft | 449 kts | 219° |
| 2026-05-08 11:55 | -4.59672 | 113.95742 | 30857 ft | 451 kts | 219° |
| 2026-05-08 11:56 | -4.62123 | 113.93769 | 31085 ft | 452 kts | 219° |
| 2026-05-08 11:56 | -4.64576 | 113.91795 | 31333 ft | 453 kts | 219° |
| 2026-05-08 11:56 | -4.67036 | 113.89819 | 31653 ft | 452 kts | 219° |
| 2026-05-08 11:56 | -4.69490 | 113.87849 | 31965 ft | 451 kts | 219° |
| 2026-05-08 11:57 | -4.71936 | 113.85883 | 32269 ft | 451 kts | 219° |
| 2026-05-08 11:57 | -4.74381 | 113.83915 | 32567 ft | 450 kts | 219° |
| 2026-05-08 11:57 | -4.76814 | 113.81955 | 32860 ft | 449 kts | 219° |
| 2026-05-08 11:57 | -4.79256 | 113.79991 | 33171 ft | 449 kts | 219° |
| 2026-05-08 11:58 | -4.81689 | 113.78034 | 33438 ft | 448 kts | 219° |
| 2026-05-08 11:58 | -4.84121 | 113.76079 | 33722 ft | 448 kts | 219° |
| 2026-05-08 11:58 | -4.86547 | 113.74130 | 33955 ft | 448 kts | 219° |
| 2026-05-08 11:59 | -4.91330 | 113.70295 | 34010 ft | 435 kts | 219° |
| 2026-05-08 11:59 | -4.93695 | 113.68394 | 34009 ft | 435 kts | 219° |
| 2026-05-08 11:59 | -4.98408 | 113.64593 | 34009 ft | 435 kts | 219° |
| 2026-05-08 12:00 | -5.03125 | 113.60796 | 34009 ft | 435 kts | 219° |
| 2026-05-08 12:00 | -5.07842 | 113.56991 | 34009 ft | 435 kts | 219° |
| 2026-05-08 12:01 | -5.12565 | 113.53191 | 34010 ft | 435 kts | 219° |
| 2026-05-08 12:01 | -5.17285 | 113.49403 | 34012 ft | 435 kts | 219° |
| 2026-05-08 12:02 | -5.22011 | 113.45607 | 34011 ft | 435 kts | 219° |
| 2026-05-08 12:02 | -5.26722 | 113.41794 | 34010 ft | 435 kts | 219° |
| 2026-05-08 12:03 | -5.31429 | 113.37994 | 34011 ft | 435 kts | 219° |
| 2026-05-08 12:03 | -5.36156 | 113.34196 | 34008 ft | 435 kts | 219° |
| 2026-05-08 12:04 | -5.40870 | 113.30396 | 34007 ft | 435 kts | 219° |
| 2026-05-08 12:04 | -5.45584 | 113.26587 | 34011 ft | 435 kts | 219° |
| 2026-05-08 12:05 | -5.50303 | 113.22787 | 33959 ft | 434 kts | 219° |
| 2026-05-08 12:05 | -5.52640 | 113.20907 | 33702 ft | 430 kts | 219° |
| 2026-05-08 12:05 | -5.54966 | 113.19034 | 33452 ft | 428 kts | 219° |
| 2026-05-08 12:06 | -5.57288 | 113.17162 | 33203 ft | 426 kts | 219° |
| 2026-05-08 12:06 | -5.59590 | 113.15304 | 32951 ft | 424 kts | 219° |
| 2026-05-08 12:06 | -5.61888 | 113.13450 | 32701 ft | 423 kts | 219° |
| 2026-05-08 12:06 | -5.64168 | 113.11607 | 32451 ft | 421 kts | 219° |
| 2026-05-08 12:07 | -5.66419 | 113.09788 | 32198 ft | 419 kts | 219° |
| 2026-05-08 12:07 | -5.68713 | 113.07931 | 31950 ft | 417 kts | 219° |
| 2026-05-08 12:07 | -5.70940 | 113.06131 | 31703 ft | 416 kts | 219° |
| 2026-05-08 12:07 | -5.73189 | 113.04317 | 31453 ft | 414 kts | 219° |
| 2026-05-08 12:08 | -5.75458 | 113.02488 | 31200 ft | 412 kts | 219° |
| 2026-05-08 12:08 | -5.77663 | 113.00710 | 30953 ft | 411 kts | 219° |
| 2026-05-08 12:08 | -5.79883 | 112.98922 | 30703 ft | 409 kts | 219° |
| 2026-05-08 12:08 | -5.82097 | 112.97136 | 30453 ft | 407 kts | 219° |
| 2026-05-08 12:09 | -5.84304 | 112.95353 | 30202 ft | 406 kts | 218° |
| 2026-05-08 12:09 | -5.86634 | 112.93776 | 29951 ft | 404 kts | 208° |
| 2026-05-08 12:09 | -5.89198 | 112.92623 | 29703 ft | 403 kts | 199° |
| 2026-05-08 12:09 | -5.91904 | 112.91936 | 29450 ft | 402 kts | 189° |
| 2026-05-08 12:10 | -5.94667 | 112.91526 | 29195 ft | 400 kts | 188° |
| 2026-05-08 12:10 | -5.97417 | 112.91116 | 28958 ft | 399 kts | 189° |
| 2026-05-08 12:10 | -6.00154 | 112.90701 | 28709 ft | 397 kts | 189° |
| 2026-05-08 12:10 | -6.02880 | 112.90284 | 28451 ft | 395 kts | 189° |
| 2026-05-08 12:11 | -6.05588 | 112.89866 | 28084 ft | 392 kts | 189° |
| 2026-05-08 12:11 | -6.08273 | 112.89451 | 27630 ft | 389 kts | 189° |
| 2026-05-08 12:11 | -6.10934 | 112.89037 | 27187 ft | 386 kts | 189° |
| 2026-05-08 12:11 | -6.13585 | 112.88629 | 26736 ft | 384 kts | 189° |
| 2026-05-08 12:12 | -6.16211 | 112.88186 | 26138 ft | 384 kts | 194° |
| 2026-05-08 12:12 | -6.18719 | 112.87202 | 25233 ft | 388 kts | 205° |
| 2026-05-08 12:12 | -6.20326 | 112.86441 | 24736 ft | 383 kts | 205° |
| 2026-05-08 12:12 | -6.23512 | 112.84933 | 23731 ft | 375 kts | 205° |
| 2026-05-08 12:13 | -6.25066 | 112.84199 | 23245 ft | 370 kts | 205° |
| 2026-05-08 12:13 | -6.27369 | 112.83113 | 22678 ft | 360 kts | 205° |
| 2026-05-08 12:13 | -6.29633 | 112.82045 | 22135 ft | 360 kts | 205° |
| 2026-05-08 12:13 | -6.31898 | 112.80972 | 21584 ft | 361 kts | 205° |
| 2026-05-08 12:14 | -6.34176 | 112.79894 | 21034 ft | 362 kts | 205° |
| 2026-05-08 12:14 | -6.36465 | 112.78814 | 20480 ft | 363 kts | 205° |
| 2026-05-08 12:14 | -6.38755 | 112.77736 | 19022 ft | 364 kts | 204° |
| 2026-05-08 12:14 | -6.41041 | 112.76657 | 18674 ft | 360 kts | 203° |
| 2026-05-08 12:15 | -6.43289 | 112.75595 | 18397 ft | 354 kts | 203° |
| 2026-05-08 12:15 | -6.45513 | 112.74541 | 17968 ft | 353 kts | 203° |
| 2026-05-08 12:15 | -6.47735 | 112.73488 | 17514 ft | 352 kts | 203° |
| 2026-05-08 12:15 | -6.49939 | 112.72442 | 17087 ft | 350 kts | 203° |
| 2026-05-08 12:16 | -6.52140 | 112.71402 | 16663 ft | 348 kts | 203° |
| 2026-05-08 12:16 | -6.54321 | 112.70373 | 16242 ft | 346 kts | 203° |
| 2026-05-08 12:16 | -6.56504 | 112.69345 | 15824 ft | 345 kts | 203° |
| 2026-05-08 12:16 | -6.58702 | 112.68308 | 15403 ft | 344 kts | 204° |
| 2026-05-08 12:17 | -6.60838 | 112.67298 | 15000 ft | 343 kts | 204° |
| 2026-05-08 12:17 | -6.63020 | 112.66265 | 14588 ft | 342 kts | 204° |
| 2026-05-08 12:17 | -6.65140 | 112.65261 | 14181 ft | 341 kts | 204° |
| 2026-05-08 12:17 | -6.67279 | 112.64245 | 13768 ft | 340 kts | 204° |
| 2026-05-08 12:18 | -6.69421 | 112.63227 | 13326 ft | 340 kts | 204° |
| 2026-05-08 12:18 | -6.71547 | 112.62222 | 13006 ft | 334 kts | 204° |
| 2026-05-08 12:18 | -6.73636 | 112.61237 | 12665 ft | 330 kts | 204° |
| 2026-05-08 12:18 | -6.75708 | 112.60259 | 12253 ft | 328 kts | 204° |
| 2026-05-08 12:19 | -6.77770 | 112.59286 | 11837 ft | 326 kts | 204° |
| 2026-05-08 12:19 | -6.79802 | 112.58328 | 11650 ft | 317 kts | 204° |
| 2026-05-08 12:19 | -6.81758 | 112.57403 | 11301 ft | 306 kts | 204° |
| 2026-05-08 12:19 | -6.83670 | 112.56497 | 10707 ft | 302 kts | 204° |
| 2026-05-08 12:20 | -6.85548 | 112.55607 | 10265 ft | 297 kts | 204° |
| 2026-05-08 12:20 | -6.87455 | 112.54708 | 9849 ft | 299 kts | 204° |
| 2026-05-08 12:20 | -6.89339 | 112.53818 | 9426 ft | 299 kts | 204° |
| 2026-05-08 12:20 | -6.91212 | 112.52931 | 9032 ft | 298 kts | 204° |
| 2026-05-08 12:21 | -6.93070 | 112.52050 | 8637 ft | 293 kts | 204° |
| 2026-05-08 12:21 | -6.94905 | 112.51179 | 8178 ft | 289 kts | 204° |
| 2026-05-08 12:21 | -6.96716 | 112.50364 | 7775 ft | 282 kts | 197° |
| 2026-05-08 12:21 | -6.98608 | 112.49976 | 7393 ft | 277 kts | 182° |
| 2026-05-08 12:22 | -7.00552 | 112.50083 | 7154 ft | 280 kts | 173° |
| 2026-05-08 12:22 | -7.02482 | 112.50306 | 6906 ft | 279 kts | 173° |
| 2026-05-08 12:22 | -7.04406 | 112.50526 | 6653 ft | 278 kts | 173° |
| 2026-05-08 12:22 | -7.06320 | 112.50744 | 6395 ft | 275 kts | 173° |
| 2026-05-08 12:23 | -7.08215 | 112.50957 | 6125 ft | 274 kts | 173° |
| 2026-05-08 12:23 | -7.10087 | 112.51166 | 5864 ft | 269 kts | 173° |
| 2026-05-08 12:23 | -7.11928 | 112.51373 | 5624 ft | 263 kts | 173° |
| 2026-05-08 12:23 | -7.13717 | 112.51576 | 5381 ft | 256 kts | 173° |
| 2026-05-08 12:24 | -7.15473 | 112.51774 | 5155 ft | 252 kts | 173° |
| 2026-05-08 12:24 | -7.17205 | 112.51970 | 4920 ft | 249 kts | 173° |
| 2026-05-08 12:24 | -7.18932 | 112.52166 | 4707 ft | 249 kts | 172° |
| 2026-05-08 12:24 | -7.20645 | 112.52361 | 4445 ft | 243 kts | 172° |
| 2026-05-08 12:25 | -7.22289 | 112.52546 | 4238 ft | 234 kts | 173° |
| 2026-05-08 12:25 | -7.23855 | 112.52721 | 4136 ft | 218 kts | 173° |
| 2026-05-08 12:25 | -7.25312 | 112.52882 | 4058 ft | 207 kts | 172° |
| 2026-05-08 12:25 | -7.26739 | 112.53044 | 3968 ft | 206 kts | 172° |
| 2026-05-08 12:26 | -7.28160 | 112.53207 | 3878 ft | 206 kts | 172° |
| 2026-05-08 12:26 | -7.29586 | 112.53371 | 3786 ft | 206 kts | 172° |
| 2026-05-08 12:26 | -7.31007 | 112.53535 | 3695 ft | 206 kts | 172° |
| 2026-05-08 12:26 | -7.32428 | 112.53734 | 3604 ft | 205 kts | 162° |
| 2026-05-08 12:27 | -7.33626 | 112.54464 | 3517 ft | 203 kts | 130° |
| 2026-05-08 12:27 | -7.34250 | 112.55707 | 3378 ft | 198 kts | 100° |
| 2026-05-08 12:27 | -7.34468 | 112.57050 | 3222 ft | 192 kts | 99° |
| 2026-05-08 12:27 | -7.34689 | 112.58411 | 3072 ft | 189 kts | 99° |
| 2026-05-08 12:28 | -7.34896 | 112.59687 | 3021 ft | 189 kts | 99° |
| 2026-05-08 12:28 | -7.35109 | 112.60991 | 2994 ft | 188 kts | 99° |
| 2026-05-08 12:28 | -7.35318 | 112.62276 | 2817 ft | 185 kts | 99° |
| 2026-05-08 12:28 | -7.35523 | 112.63535 | 2623 ft | 179 kts | 100° |
| 2026-05-08 12:29 | -7.35724 | 112.64774 | 2394 ft | 179 kts | 99° |
| 2026-05-08 12:29 | -7.35922 | 112.65988 | 2164 ft | 173 kts | 99° |
| 2026-05-08 12:29 | -7.36107 | 112.67129 | 1969 ft | 156 kts | 99° |
| 2026-05-08 12:29 | -7.36277 | 112.68177 | 1774 ft | 148 kts | 99° |
| 2026-05-08 12:30 | -7.36439 | 112.69172 | 1585 ft | 140 kts | 99° |
| 2026-05-08 12:30 | -7.36594 | 112.70125 | 1408 ft | 137 kts | 100° |
| 2026-05-08 12:30 | -7.36747 | 112.71070 | 1232 ft | 136 kts | 99° |
| 2026-05-08 12:30 | -7.36901 | 112.72014 | 1051 ft | 137 kts | 99° |
| 2026-05-08 12:31 | -7.37053 | 112.72953 | 892 ft | 134 kts | 99° |
| 2026-05-08 12:31 | -7.37205 | 112.73887 | 727 ft | 136 kts | 98° |
| 2026-05-08 12:31 | -7.37359 | 112.74829 | 539 ft | 136 kts | 98° |
| 2026-05-08 12:31 | -7.37518 | 112.75769 | 308 ft | 136 kts | 98° |
| 2026-05-08 12:32 | -7.37666 | 112.76704 | 132 ft | 136 kts | 98° |
| 2026-05-08 12:32 | -7.37816 | 112.77640 | 27 ft | 134 kts | 98° |
| 2026-05-08 12:32 | -7.37948 | 112.78470 | 9 ft | 102 kts | 99° |
| 2026-05-08 12:32 | -7.38017 | 112.78898 | 9 ft | 40 kts | 99° |
| 2026-05-08 12:33 | -7.38049 | 112.79097 | 11 ft | 22 kts | 99° |
| 2026-05-08 12:33 | -7.38045 | 112.79219 | 11 ft | 16 kts | 77° |
| 2026-05-08 12:33 | -7.38009 | 112.79328 | 9 ft | 17 kts | 69° |
| 2026-05-08 12:33 | -7.37969 | 112.79403 | 9 ft | 9 kts | 29° |
| 2026-05-08 12:34 | -7.37910 | 112.79415 | 9 ft | 8 kts | 9° |
| 2026-05-08 12:34 | -7.37856 | 112.79424 | 9 ft | 8 kts | 9° |
| 2026-05-08 12:34 | -7.37789 | 112.79436 | 11 ft | 11 kts | 9° |
| 2026-05-08 12:34 | -7.37721 | 112.79446 | 9 ft | 9 kts | 8° |
| 2026-05-08 12:35 | -7.37681 | 112.79472 | 9 ft | 6 kts | 68° |
| 2026-05-08 12:35 | -7.37689 | 112.79517 | 9 ft | 7 kts | 102° |
| 2026-05-08 12:35 | -7.37697 | 112.79568 | 9 ft | 8 kts | 98° |
| 2026-05-08 12:35 | -7.37699 | 112.79624 | 9 ft | 7 kts | 65° |
| 2026-05-08 12:36 | -7.37654 | 112.79641 | 10 ft | 7 kts | 9° |
| 2026-05-08 12:36 | -7.37620 | 112.79646 | 9 ft | 2 kts | 8° |
| 2026-05-08 12:36 | -7.37616 | 112.79647 | 9 ft | 0 kts | 8° |